Accueil
METAR-TAF:

METAR-TAF

Aéroports :

Aéroport international d'Exeter

Exeter, Angleterre

latitude: 50-44N, longitude: 003-25W, altitude: 30 m

Observation

Le bulletin a été fait il y a 2 heures et 50 minutes, à 16:50 UTC
Vent 8 kt de ouest/nord-ouest, variant entre ouest et nord-ouest
Température 21°C
Humidité 69%
Pression 1021 hPa
Visibilité 10 km ou plus
Nuages épars à une hauteur de 2800 ft

METAR: EGTE 241650Z 30008KT 260V320 9999 SCT028 21/15 Q1021

Heure: 20:40 (19:40 UTC)

Prévision

Le bulletin a été fait il y a 4 heures et 24 minutes, à 15:16 UTC
Prévision valable du 24 à 15 UTC au 24 à 17 UTC
Vent 5 kt de sud
Visibilité 10 km ou plus
Nuages épars à une hauteur de 2000 ft
Probabilité 30% :
Temporairement
du 24 à 15 UTC au 24 à 17 UTC
Nuages fragmentés à une hauteur de 1400 ft

TAF: EGTE 241516Z 2415/2417 19005KT 9999 SCT020 PROB30 TEMPO 2415/2417 BKN014

Observations et prévisions météorologiques de plus de 4000 aéroports (messages METAR et TAF).

Les stations disponibles sont représentées par des disques jaunes et rouges sur la carte.

Passer la souris dessus pour voir le nom de la station.

Cliquer dessus pour voir les observations et prévisions météorologiques.

Pour changer de carte: cliquez sur les boutons verts avec une croix noire pour zoomer, sur le bouton vert avec un tiret pour effectuer un zoom arrière, ou sur les flèches vertes pour les cartes adjacentes.


METAR-TAF: